createdAt,value
2019-05-15T00:00:13.832Z,99.90
2019-05-15T00:02:42.363Z,99.90
2019-05-15T00:05:10.921Z,99.90
2019-05-15T00:07:39.567Z,99.90
2019-05-15T00:10:09.130Z,99.90
2019-05-15T00:12:39.553Z,99.90
2019-05-15T00:15:09.228Z,99.90
2019-05-15T00:17:39.343Z,99.90
2019-05-15T00:20:09.943Z,99.90
2019-05-15T00:22:39.064Z,99.90
2019-05-15T00:25:09.412Z,99.90
2019-05-15T00:27:38.758Z,99.90
2019-05-15T00:30:09.899Z,99.90
2019-05-15T00:32:39.406Z,99.90
2019-05-15T00:35:09.619Z,99.90
2019-05-15T00:37:38.993Z,99.90
2019-05-15T00:40:08.988Z,99.90
2019-05-15T00:42:38.371Z,99.90
2019-05-15T00:45:09.475Z,99.90
2019-05-15T00:47:39.787Z,99.90
2019-05-15T00:50:09.461Z,99.90
2019-05-15T00:52:39.189Z,99.90
2019-05-15T00:55:09.010Z,99.90
2019-05-15T00:57:39.173Z,99.90
2019-05-15T01:00:09.407Z,99.90
2019-05-15T01:02:38.806Z,99.90
2019-05-15T01:05:08.465Z,99.90
2019-05-15T01:07:39.178Z,99.90
2019-05-15T01:10:09.882Z,99.90
2019-05-15T01:12:38.763Z,99.90
2019-05-15T01:15:09.198Z,99.90
2019-05-15T01:17:39.108Z,99.90
2019-05-15T01:20:08.627Z,99.90
2019-05-15T01:22:39.308Z,99.90
2019-05-15T01:25:08.577Z,99.90
2019-05-15T01:27:38.714Z,99.90
2019-05-15T01:30:09.231Z,99.90
2019-05-15T01:32:39.377Z,99.90
2019-05-15T01:35:09.652Z,99.90
2019-05-15T01:37:39.067Z,99.90
2019-05-15T01:40:09.053Z,99.90
2019-05-15T01:42:38.896Z,99.90
2019-05-15T01:45:08.850Z,99.90
2019-05-15T01:47:38.996Z,99.90
2019-05-15T01:50:09.189Z,99.90
2019-05-15T01:52:38.922Z,99.90
2019-05-15T01:55:09.316Z,99.90
2019-05-15T01:57:38.553Z,99.90
2019-05-15T02:00:09.383Z,99.90
2019-05-15T02:02:38.947Z,99.90
2019-05-15T02:05:09.065Z,99.90
2019-05-15T02:07:39.149Z,99.90
2019-05-15T02:10:09.101Z,99.90
2019-05-15T02:12:39.019Z,99.90
2019-05-15T02:15:09.589Z,99.90
2019-05-15T02:17:39.161Z,99.90
2019-05-15T02:20:08.718Z,99.90
2019-05-15T02:22:42.014Z,99.90
2019-05-15T02:25:08.577Z,99.90
2019-05-15T02:27:39.339Z,99.90
2019-05-15T02:30:22.504Z,99.90
2019-05-15T02:32:40.153Z,99.90
2019-05-15T02:35:10.062Z,99.90
2019-05-15T02:37:41.081Z,99.90
2019-05-15T02:40:10.652Z,99.90
2019-05-15T02:42:40.255Z,99.90
2019-05-15T02:45:10.582Z,99.90
2019-05-15T02:47:40.041Z,99.90
2019-05-15T02:50:10.754Z,99.90
2019-05-15T02:52:44.534Z,99.90
2019-05-15T02:55:09.942Z,99.90
2019-05-15T02:57:39.310Z,99.90
2019-05-15T03:00:10.742Z,99.90
2019-05-15T03:02:41.377Z,99.90
2019-05-15T03:05:10.254Z,99.90
2019-05-15T03:07:40.211Z,99.90
2019-05-15T03:10:09.703Z,99.90
2019-05-15T03:12:40.823Z,99.90
2019-05-15T03:15:09.632Z,99.90
2019-05-15T03:17:40.475Z,99.90
2019-05-15T03:20:10.403Z,99.90
2019-05-15T03:22:40.350Z,99.90
2019-05-15T03:25:11.231Z,99.90
2019-05-15T03:27:40.312Z,99.90
2019-05-15T03:30:13.075Z,99.90
2019-05-15T03:32:50.494Z,99.90
2019-05-15T03:35:14.403Z,99.90
2019-05-15T03:37:40.934Z,99.90
2019-05-15T03:40:10.706Z,99.90
2019-05-15T03:42:40.042Z,99.90
2019-05-15T03:45:10.393Z,99.90
2019-05-15T03:47:40.232Z,99.90
2019-05-15T03:50:10.015Z,99.90
2019-05-15T03:52:39.648Z,99.90
2019-05-15T03:55:10.825Z,99.90
2019-05-15T03:57:40.278Z,99.90
2019-05-15T04:00:10.195Z,99.90
2019-05-15T04:02:39.626Z,99.90
2019-05-15T04:05:11.619Z,99.90
2019-05-15T04:07:40.094Z,99.90
2019-05-15T04:10:10.222Z,99.90
2019-05-15T04:12:40.505Z,99.90
2019-05-15T04:15:10.578Z,99.90
2019-05-15T04:17:40.461Z,99.90
2019-05-15T04:20:10.408Z,99.90
2019-05-15T04:22:40.289Z,99.90
2019-05-15T04:25:10.126Z,99.90
2019-05-15T04:27:40.864Z,99.90
2019-05-15T04:30:11.069Z,99.90
2019-05-15T04:32:40.495Z,99.90
2019-05-15T04:35:09.855Z,99.90
2019-05-15T04:37:40.524Z,99.90
2019-05-15T04:40:09.838Z,99.90
2019-05-15T04:42:39.818Z,99.90
2019-05-15T04:45:10.170Z,99.90
2019-05-15T04:47:40.056Z,99.90
2019-05-15T04:50:10.356Z,99.90
2019-05-15T04:52:43.055Z,99.90
2019-05-15T04:55:10.405Z,99.90
2019-05-15T04:57:40.593Z,99.90
2019-05-15T05:00:10.447Z,99.90
2019-05-15T05:02:40.304Z,99.90
2019-05-15T05:05:10.393Z,99.90
2019-05-15T05:07:39.544Z,99.90
2019-05-15T05:10:09.515Z,99.90
2019-05-15T05:12:42.051Z,99.90
2019-05-15T05:15:09.211Z,99.90
2019-05-15T05:17:39.204Z,99.90
2019-05-15T05:20:08.468Z,99.90
2019-05-15T05:22:39.335Z,99.90
2019-05-15T05:25:08.461Z,99.90
2019-05-15T05:27:38.349Z,99.90
2019-05-15T05:30:08.697Z,99.90
2019-05-15T05:32:38.976Z,99.90
2019-05-15T05:35:08.564Z,99.90
2019-05-15T05:37:38.938Z,99.90
2019-05-15T05:40:08.217Z,99.90
2019-05-15T05:42:38.973Z,99.90
2019-05-15T05:45:09.321Z,99.90
2019-05-15T05:47:38.539Z,99.90
2019-05-15T05:50:08.518Z,99.90
2019-05-15T05:52:38.985Z,99.90
2019-05-15T05:55:09.501Z,99.90
2019-05-15T05:57:38.704Z,99.90
2019-05-15T06:00:11.433Z,99.90
2019-05-15T06:02:47.726Z,99.90
2019-05-15T06:05:10.283Z,99.90
2019-05-15T06:07:38.997Z,99.90
2019-05-15T06:10:08.955Z,99.90
2019-05-15T06:12:38.947Z,99.90
2019-05-15T06:15:09.066Z,99.90
2019-05-15T06:17:39.161Z,99.90
2019-05-15T06:20:08.269Z,99.90
2019-05-15T06:22:38.775Z,99.90
2019-05-15T06:25:10.716Z,99.90
2019-05-15T06:27:39.081Z,99.90
2019-05-15T06:30:08.790Z,99.90
2019-05-15T06:32:39.859Z,99.90
2019-05-15T06:35:09.294Z,99.90
2019-05-15T06:37:39.662Z,99.90
2019-05-15T06:40:08.658Z,99.90
2019-05-15T06:42:39.442Z,99.90
2019-05-15T06:45:08.321Z,99.90
2019-05-15T06:47:39.245Z,99.90
2019-05-15T06:50:10.916Z,99.90
2019-05-15T06:52:39.371Z,99.90
2019-05-15T06:55:09.047Z,99.90
2019-05-15T06:57:39.697Z,99.90
2019-05-15T07:00:09.474Z,99.90
2019-05-15T07:02:38.379Z,99.90
2019-05-15T07:05:07.991Z,99.90
2019-05-15T07:07:38.713Z,99.90
2019-05-15T07:10:09.072Z,99.90
2019-05-15T07:12:39.059Z,99.90
2019-05-15T07:15:09.108Z,99.90
2019-05-15T07:17:39.179Z,99.90
2019-05-15T07:20:09.609Z,99.90
2019-05-15T07:22:39.083Z,99.90
2019-05-15T07:25:09.278Z,99.90
2019-05-15T07:27:38.970Z,99.90
2019-05-15T07:30:11.920Z,99.90
2019-05-15T07:32:40.192Z,99.90
2019-05-15T07:35:09.293Z,99.90
2019-05-15T07:37:38.753Z,99.90
2019-05-15T07:40:29.760Z,99.90
2019-05-15T07:42:58.791Z,99.90
2019-05-15T07:45:28.282Z,99.90
2019-05-15T07:47:58.467Z,99.90
2019-05-15T07:50:29.843Z,99.90
2019-05-15T07:52:59.008Z,99.90
2019-05-15T07:55:29.587Z,99.90
2019-05-15T07:57:59.210Z,99.90
2019-05-15T08:00:28.953Z,99.90
2019-05-15T08:02:58.634Z,99.90
2019-05-15T08:05:28.534Z,99.90
2019-05-15T08:07:58.143Z,99.90
2019-05-15T08:10:28.459Z,99.90
2019-05-15T08:12:58.090Z,99.90
2019-05-15T08:15:28.560Z,99.90
2019-05-15T08:18:05.483Z,99.90
2019-05-15T08:20:28.932Z,99.90
2019-05-15T08:22:58.245Z,99.90
2019-05-15T08:25:34.233Z,99.90
2019-05-15T08:27:58.861Z,99.90
2019-05-15T08:30:28.849Z,99.90
2019-05-15T08:32:58.857Z,99.90
2019-05-15T08:35:29.173Z,99.90
2019-05-15T08:37:58.154Z,99.90
2019-05-15T08:40:28.476Z,99.90
2019-05-15T08:43:01.874Z,99.90
2019-05-15T08:45:28.292Z,99.90
2019-05-15T08:47:58.617Z,99.90
2019-05-15T08:50:28.711Z,99.90
2019-05-15T08:52:57.911Z,99.90
2019-05-15T08:55:28.145Z,99.90
2019-05-15T08:58:07.312Z,99.90
2019-05-15T09:00:29.443Z,99.90
2019-05-15T09:02:58.180Z,99.90
2019-05-15T09:05:28.301Z,99.90
2019-05-15T09:07:58.059Z,99.90
2019-05-15T09:10:28.687Z,99.90
2019-05-15T09:12:58.604Z,99.90
2019-05-15T09:15:29.368Z,99.90
2019-05-15T09:18:11.305Z,99.90
2019-05-15T09:20:28.773Z,99.90
2019-05-15T09:22:58.233Z,99.90
2019-05-15T09:25:28.745Z,99.90
2019-05-15T09:27:57.973Z,99.90
2019-05-15T09:30:28.603Z,99.90
2019-05-15T09:32:58.839Z,99.90
2019-05-15T09:35:27.831Z,99.90
2019-05-15T09:37:58.296Z,99.90
2019-05-15T09:40:41.295Z,99.90
2019-05-15T09:42:57.833Z,99.90
2019-05-15T09:45:28.535Z,99.90
2019-05-15T09:47:58.817Z,99.90
2019-05-15T09:50:28.240Z,99.90
2019-05-15T09:52:58.805Z,99.90
2019-05-15T09:55:28.497Z,99.90
2019-05-15T09:57:59.073Z,99.90
2019-05-15T10:00:29.198Z,98.80
2019-05-15T10:02:58.072Z,96.00
2019-05-15T10:05:28.128Z,96.80
2019-05-15T10:07:56.796Z,94.00
2019-05-15T10:10:25.284Z,93.20
2019-05-15T10:12:53.772Z,91.80
2019-05-15T10:15:22.374Z,90.90
2019-05-15T10:17:51.478Z,92.20
2019-05-15T10:20:20.225Z,87.00
2019-05-15T10:22:48.717Z,90.00
2019-05-15T10:25:18.975Z,84.20
2019-05-15T10:27:48.859Z,86.10
2019-05-15T10:30:18.932Z,84.40
2019-05-15T10:32:48.769Z,82.40
2019-05-15T10:35:27.528Z,80.00
2019-05-15T10:37:48.726Z,83.20
2019-05-15T10:40:20.346Z,84.30
2019-05-15T10:42:49.660Z,79.00
2019-05-15T10:45:19.255Z,72.90
2019-05-15T10:47:49.572Z,75.90
2019-05-15T10:50:19.218Z,78.80
2019-05-15T10:52:48.879Z,71.70
2019-05-15T10:55:18.896Z,71.00
2019-05-15T10:57:47.887Z,67.00
2019-05-15T11:00:19.520Z,71.40
2019-05-15T11:02:48.942Z,70.90
2019-05-15T11:05:19.119Z,74.30
2019-05-15T11:07:48.252Z,70.10
2019-05-15T11:10:18.589Z,76.90
2019-05-15T11:12:47.563Z,70.00
2019-05-15T11:15:18.451Z,69.00
2019-05-15T11:17:48.969Z,65.70
2019-05-15T11:20:18.791Z,63.50
2019-05-15T11:22:50.004Z,68.80
2019-05-15T11:25:17.879Z,68.20
2019-05-15T11:27:48.420Z,75.90
2019-05-15T11:30:19.250Z,75.40
2019-05-15T11:32:48.685Z,67.10
2019-05-15T11:35:18.551Z,66.00
2019-05-15T11:37:56.020Z,66.60
2019-05-15T11:40:18.877Z,66.10
2019-05-15T11:42:48.744Z,70.00
2019-05-15T11:45:18.541Z,68.90
2019-05-15T11:47:48.295Z,70.70
2019-05-15T11:50:20.415Z,72.90
2019-05-15T11:52:48.208Z,74.20
2019-05-15T11:55:16.937Z,69.30
2019-05-15T11:57:47.697Z,69.60
2019-05-15T12:00:25.688Z,64.60
2019-05-15T12:02:48.078Z,70.80
2019-05-15T12:05:18.318Z,64.10
2019-05-15T12:07:47.776Z,64.40
2019-05-15T12:10:18.397Z,67.20
2019-05-15T12:12:49.660Z,64.70
2019-05-15T12:15:19.099Z,67.70
2019-05-15T12:17:48.622Z,71.00
2019-05-15T12:20:19.403Z,70.00
2019-05-15T12:22:48.646Z,71.40
2019-05-15T12:25:17.576Z,74.10
2019-05-15T12:27:48.857Z,71.40
2019-05-15T12:30:19.797Z,80.60
2019-05-15T12:32:49.250Z,74.40
2019-05-15T12:35:20.508Z,71.90
2019-05-15T12:37:47.676Z,72.20
2019-05-15T13:00:24.215Z,73.20
2019-05-15T13:02:52.780Z,70.70
2019-05-15T13:05:21.240Z,72.10
2019-05-15T13:07:49.740Z,74.10
2019-05-15T13:10:18.559Z,72.50
2019-05-15T13:12:59.390Z,67.70
2019-05-15T13:15:18.940Z,69.30
2019-05-15T13:17:52.619Z,71.80
2019-05-15T13:20:18.569Z,68.50
2019-05-15T13:25:18.644Z,65.40
2019-05-15T13:27:48.624Z,63.00
2019-05-15T13:30:18.313Z,60.70
2019-05-15T13:32:49.418Z,58.70
2019-05-15T13:35:18.349Z,57.50
2019-05-15T13:37:49.473Z,54.40
2019-05-15T13:40:18.655Z,53.90
2019-05-15T13:42:48.596Z,52.70
2019-05-15T13:45:18.345Z,54.30
2019-05-15T13:47:46.948Z,53.70
2019-05-15T13:50:15.736Z,52.10
2019-05-15T13:52:44.301Z,51.70
2019-05-15T13:55:12.977Z,50.00
2019-05-15T13:57:41.455Z,50.40
2019-05-15T14:00:11.111Z,49.40
2019-05-15T14:02:39.710Z,53.30
2019-05-15T14:05:09.479Z,53.40
2019-05-15T14:07:49.014Z,51.60
2019-05-15T14:10:09.735Z,51.60
2019-05-15T14:12:38.525Z,51.60
2019-05-15T14:15:09.100Z,49.10
2019-05-15T14:17:38.249Z,48.50
2019-05-15T14:20:09.034Z,47.80
2019-05-15T14:22:38.927Z,48.40
2019-05-15T14:25:09.588Z,49.40
2019-05-15T14:27:39.749Z,47.80
2019-05-15T14:30:09.969Z,49.10
2019-05-15T14:32:39.259Z,49.40
2019-05-15T14:35:09.534Z,49.00
2019-05-15T14:37:38.241Z,50.50
2019-05-15T14:40:09.079Z,49.90
2019-05-15T14:42:39.479Z,47.80
2019-05-15T14:45:10.096Z,47.50
2019-05-15T14:47:39.674Z,48.30
2019-05-15T14:50:09.879Z,48.60
2019-05-15T14:52:39.072Z,50.80
2019-05-15T14:55:08.334Z,49.50
2019-05-15T14:57:39.280Z,48.60
2019-05-15T15:00:09.158Z,47.60
2019-05-15T15:02:38.966Z,47.10
2019-05-15T15:05:09.022Z,47.40
2019-05-15T15:07:38.489Z,47.60
2019-05-15T15:10:08.345Z,48.70
2019-05-15T15:12:39.581Z,48.50
2019-05-15T15:15:09.803Z,48.10
2019-05-15T15:17:38.720Z,49.20
2019-05-15T15:20:08.005Z,47.90
2019-05-15T15:22:39.168Z,47.50
2019-05-15T15:25:09.525Z,48.30
2019-05-15T15:27:39.027Z,47.30
2019-05-15T15:30:09.281Z,48.70
2019-05-15T15:32:38.661Z,48.50
2019-05-15T15:35:09.408Z,48.10
2019-05-15T15:37:38.554Z,49.80
2019-05-15T15:40:08.460Z,52.10
2019-05-15T15:42:39.593Z,55.40
2019-05-15T15:45:09.372Z,57.40
2019-05-15T15:47:39.032Z,57.20
2019-05-15T15:50:09.635Z,57.20
2019-05-15T15:52:38.920Z,60.80
2019-05-15T15:55:09.408Z,60.50
2019-05-15T15:57:39.842Z,61.70
2019-05-15T16:00:10.541Z,62.50
2019-05-15T16:02:41.171Z,64.30
2019-05-15T16:05:09.807Z,63.10
2019-05-15T16:07:38.577Z,61.90
2019-05-15T16:10:08.501Z,62.20
2019-05-15T16:12:38.714Z,64.00
2019-05-15T16:15:09.015Z,66.70
2019-05-15T16:17:38.458Z,65.70
2019-05-15T16:20:09.425Z,66.80
2019-05-15T16:22:38.331Z,68.40
2019-05-15T16:25:09.708Z,71.60
2019-05-15T16:27:38.914Z,72.10
2019-05-15T16:30:08.795Z,70.80
2019-05-15T16:32:38.877Z,70.40
2019-05-15T16:35:09.160Z,67.50
2019-05-15T16:37:39.082Z,66.20
2019-05-15T16:40:09.014Z,66.50
2019-05-15T16:42:41.895Z,67.70
2019-05-15T16:45:09.316Z,67.90
2019-05-15T16:47:38.991Z,66.70
2019-05-15T16:50:09.336Z,67.10
2019-05-15T16:52:38.894Z,67.90
2019-05-15T16:55:09.482Z,69.40
2019-05-15T16:57:38.966Z,72.60
2019-05-15T17:00:09.785Z,75.90
2019-05-15T17:02:39.485Z,76.60
2019-05-15T17:05:09.584Z,76.20
2019-05-15T17:07:38.991Z,79.50
2019-05-15T17:10:08.598Z,80.20
2019-05-15T17:12:38.846Z,81.50
2019-05-15T17:15:09.455Z,81.80
2019-05-15T17:17:38.663Z,82.80
2019-05-15T17:20:10.008Z,83.40
2019-05-15T17:22:38.900Z,86.40
2019-05-15T17:25:09.260Z,86.50
2019-05-15T17:27:38.217Z,86.90
2019-05-15T17:30:09.300Z,85.10
2019-05-15T17:32:39.801Z,87.10
2019-05-15T17:35:10.146Z,86.40
2019-05-15T17:37:39.045Z,88.10
2019-05-15T17:40:09.336Z,87.50
2019-05-15T17:42:39.084Z,87.90
2019-05-15T17:45:09.239Z,89.10
2019-05-15T17:47:38.821Z,89.10
2019-05-15T17:50:08.888Z,90.70
2019-05-15T17:52:38.627Z,90.50
2019-05-15T17:55:08.132Z,90.50
2019-05-15T17:57:38.723Z,91.20
2019-05-15T18:00:11.593Z,91.20
2019-05-15T18:02:38.286Z,91.80
2019-05-15T18:05:07.660Z,91.90
2019-05-15T18:07:38.696Z,92.80
2019-05-15T18:10:08.402Z,91.20
2019-05-15T18:12:38.910Z,91.30
2019-05-15T18:15:09.143Z,90.90
2019-05-15T18:17:39.300Z,88.20
2019-05-15T18:20:09.890Z,87.30
2019-05-15T18:22:38.897Z,88.10
2019-05-15T18:25:09.087Z,86.80
2019-05-15T18:27:38.885Z,87.10
2019-05-15T18:30:09.366Z,87.50
2019-05-15T18:32:39.089Z,88.20
2019-05-15T18:35:09.068Z,88.60
2019-05-15T18:37:39.224Z,88.50
2019-05-15T18:40:10.043Z,89.60
2019-05-15T18:42:39.487Z,90.30
2019-05-15T18:45:09.332Z,90.30
2019-05-15T18:47:38.999Z,90.60
2019-05-15T18:50:13.246Z,91.10
2019-05-15T18:52:38.975Z,92.20
2019-05-15T18:55:08.152Z,91.40
2019-05-15T18:57:38.525Z,92.00
2019-05-15T19:00:09.187Z,92.40
2019-05-15T19:02:39.790Z,92.70
2019-05-15T19:05:08.688Z,92.10
2019-05-15T19:07:38.284Z,91.40
2019-05-15T19:10:10.575Z,91.20
2019-05-15T19:12:39.181Z,92.10
2019-05-15T19:15:09.183Z,91.80
2019-05-15T19:17:38.828Z,91.80
2019-05-15T19:20:09.146Z,92.80
2019-05-15T19:22:40.625Z,92.70
2019-05-15T19:25:09.134Z,93.10
2019-05-15T19:27:38.992Z,92.90
2019-05-15T19:30:08.624Z,93.90
2019-05-15T19:32:38.743Z,95.00
2019-05-15T19:35:08.170Z,95.10
2019-05-15T19:37:38.385Z,95.50
2019-05-15T19:40:09.079Z,96.40
2019-05-15T19:42:40.698Z,96.50
2019-05-15T19:45:10.401Z,97.60
2019-05-15T19:47:39.120Z,98.10
2019-05-15T19:50:09.781Z,98.90
2019-05-15T19:52:40.456Z,99.90
2019-05-15T19:55:12.064Z,99.90
2019-05-15T19:57:40.644Z,99.90
2019-05-15T20:00:10.943Z,99.90
2019-05-15T20:02:39.468Z,99.90
2019-05-15T20:05:09.119Z,99.90
2019-05-15T20:07:38.938Z,99.90
2019-05-15T20:10:08.889Z,99.90
2019-05-15T20:12:38.784Z,99.90
2019-05-15T20:15:10.017Z,99.90
2019-05-15T20:17:38.957Z,99.90
2019-05-15T20:20:08.966Z,99.90
2019-05-15T20:22:40.387Z,99.90
2019-05-15T20:25:08.890Z,99.90
2019-05-15T20:27:39.062Z,99.90
2019-05-15T20:30:28.553Z,99.90
2019-05-15T20:32:58.537Z,99.90
2019-05-15T20:35:28.307Z,99.90
2019-05-15T20:37:58.148Z,99.90
2019-05-15T20:40:26.940Z,99.90
2019-05-15T20:42:55.479Z,99.90
2019-05-15T20:45:24.572Z,99.90
2019-05-15T20:47:53.029Z,99.90
2019-05-15T20:50:21.544Z,99.90
2019-05-15T20:52:50.082Z,99.90
2019-05-15T20:55:18.641Z,99.90
2019-05-15T20:57:50.275Z,99.90
2019-05-15T21:00:19.263Z,99.90
2019-05-15T21:02:48.742Z,99.90
2019-05-15T21:05:18.671Z,99.90
2019-05-15T21:07:48.607Z,99.90
2019-05-15T21:10:21.496Z,99.90
2019-05-15T21:12:48.931Z,99.90
2019-05-15T21:15:21.391Z,99.90
2019-05-15T21:17:57.786Z,99.90
2019-05-15T21:20:18.949Z,99.90
2019-05-15T21:22:49.361Z,99.90
2019-05-15T21:25:19.667Z,99.90
2019-05-15T21:27:48.824Z,99.90
2019-05-15T21:30:18.922Z,99.90
2019-05-15T21:32:49.363Z,99.90
2019-05-15T21:35:18.161Z,99.90
2019-05-15T21:37:48.652Z,99.90
2019-05-15T21:40:17.053Z,99.90
2019-05-15T21:42:45.924Z,99.90
2019-05-15T21:45:14.906Z,99.90
2019-05-15T21:47:43.462Z,99.90
2019-05-15T21:50:12.465Z,99.90
2019-05-15T21:52:41.030Z,99.90
2019-05-15T21:55:09.877Z,99.90
2019-05-15T21:57:40.199Z,99.90
2019-05-15T22:00:31.956Z,99.90
2019-05-15T22:03:00.578Z,99.90
2019-05-15T22:05:30.845Z,99.90
2019-05-15T22:07:59.676Z,99.90
2019-05-15T22:10:28.754Z,99.90
2019-05-15T22:12:58.954Z,99.90
2019-05-15T22:15:28.746Z,99.90
2019-05-15T22:17:57.684Z,99.90
2019-05-15T22:20:47.757Z,99.90
2019-05-15T22:23:15.834Z,99.90
2019-05-15T22:25:49.593Z,99.90
2019-05-15T22:28:16.446Z,99.90
2019-05-15T22:30:45.048Z,99.90
2019-05-15T22:33:13.686Z,99.90
2019-05-15T22:35:42.313Z,99.90
2019-05-15T22:38:10.875Z,99.90
2019-05-15T22:40:39.396Z,99.90
2019-05-15T22:43:10.696Z,99.90
2019-05-15T22:45:38.543Z,99.90
2019-05-15T22:48:07.110Z,99.90
2019-05-15T22:50:38.329Z,99.90
2019-05-15T22:53:06.628Z,99.90
2019-05-15T22:55:35.113Z,99.90
2019-05-15T22:58:03.713Z,99.90
2019-05-15T23:00:32.280Z,99.90
2019-05-15T23:03:00.823Z,99.90
2019-05-15T23:05:31.948Z,99.90
2019-05-15T23:07:59.725Z,99.90
2019-05-15T23:10:29.256Z,99.90
2019-05-15T23:12:58.263Z,99.90
2019-05-15T23:15:28.155Z,99.90
2019-05-15T23:17:58.238Z,99.90
2019-05-15T23:20:28.620Z,99.90
2019-05-15T23:22:58.402Z,99.90
2019-05-15T23:25:29.030Z,99.90
2019-05-15T23:27:58.214Z,99.90
2019-05-15T23:30:28.750Z,99.90
2019-05-15T23:32:58.039Z,99.90
2019-05-15T23:35:35.541Z,99.90
2019-05-15T23:37:58.104Z,99.90
2019-05-15T23:40:28.725Z,99.90
2019-05-15T23:42:57.213Z,99.90
2019-05-15T23:45:25.782Z,99.90
2019-05-15T23:47:54.472Z,99.90
2019-05-15T23:50:24.497Z,99.90
2019-05-15T23:52:52.959Z,99.90
2019-05-15T23:55:21.584Z,99.90
2019-05-15T23:57:50.072Z,99.90
